sensor_id;sensor_type;location;lat;lon;timestamp;temperature;humidity
23116;DHT22;11727;52.134;5.052;2023-05-19T00:00:02;10.10;99.90
23116;DHT22;11727;52.134;5.052;2023-05-19T00:02:29;10.00;99.90
23116;DHT22;11727;52.134;5.052;2023-05-19T00:04:59;10.00;99.90
23116;DHT22;11727;52.134;5.052;2023-05-19T00:07:30;9.90;99.90
23116;DHT22;11727;52.134;5.052;2023-05-19T00:09:57;9.90;99.90
23116;DHT22;11727;52.134;5.052;2023-05-19T00:12:22;9.80;99.90
23116;DHT22;11727;52.134;5.052;2023-05-19T00:14:48;9.80;99.90
23116;DHT22;11727;52.134;5.052;2023-05-19T00:17:17;9.80;99.90
23116;DHT22;11727;52.134;5.052;2023-05-19T00:19:44;9.80;99.90
23116;DHT22;11727;52.134;5.052;2023-05-19T00:22:10;9.70;99.90
23116;DHT22;11727;52.134;5.052;2023-05-19T00:24:35;9.70;99.90
23116;DHT22;11727;52.134;5.052;2023-05-19T00:27:01;9.70;99.90
23116;DHT22;11727;52.134;5.052;2023-05-19T00:29:27;9.60;99.90
23116;DHT22;11727;52.134;5.052;2023-05-19T00:31:53;9.60;99.90
23116;DHT22;11727;52.134;5.052;2023-05-19T00:34:19;9.60;99.90
23116;DHT22;11727;52.134;5.052;2023-05-19T00:36:44;9.50;99.90
23116;DHT22;11727;52.134;5.052;2023-05-19T00:39:10;9.50;99.90
23116;DHT22;11727;52.134;5.052;2023-05-19T00:41:35;9.50;99.90
23116;DHT22;11727;52.134;5.052;2023-05-19T00:44:01;9.50;99.90
23116;DHT22;11727;52.134;5.052;2023-05-19T00:46:27;9.50;99.90
23116;DHT22;11727;52.134;5.052;2023-05-19T00:48:54;9.40;99.90
23116;DHT22;11727;52.134;5.052;2023-05-19T00:51:20;9.40;99.90
23116;DHT22;11727;52.134;5.052;2023-05-19T00:53:47;9.40;99.90
23116;DHT22;11727;52.134;5.052;2023-05-19T00:56:15;9.40;99.90
23116;DHT22;11727;52.134;5.052;2023-05-19T00:58:41;9.40;99.90
23116;DHT22;11727;52.134;5.052;2023-05-19T01:01:07;9.40;99.90
23116;DHT22;11727;52.134;5.052;2023-05-19T01:03:34;9.40;99.90
23116;DHT22;11727;52.134;5.052;2023-05-19T01:06:01;9.40;99.90
23116;DHT22;11727;52.134;5.052;2023-05-19T01:08:31;9.40;99.90
23116;DHT22;11727;52.134;5.052;2023-05-19T01:10:57;9.30;99.90
23116;DHT22;11727;52.134;5.052;2023-05-19T01:13:22;9.30;99.90
23116;DHT22;11727;52.134;5.052;2023-05-19T01:18:37;9.30;99.90
23116;DHT22;11727;52.134;5.052;2023-05-19T01:32:38;9.20;99.90
23116;DHT22;11727;52.134;5.052;2023-05-19T01:35:06;9.20;99.90
23116;DHT22;11727;52.134;5.052;2023-05-19T01:37:33;9.20;99.90
23116;DHT22;11727;52.134;5.052;2023-05-19T01:39:59;9.10;99.90
23116;DHT22;11727;52.134;5.052;2023-05-19T01:42:26;9.20;99.90
23116;DHT22;11727;52.134;5.052;2023-05-19T01:44:52;9.10;99.90
23116;DHT22;11727;52.134;5.052;2023-05-19T01:47:18;9.10;99.90
23116;DHT22;11727;52.134;5.052;2023-05-19T01:49:44;9.10;99.90
23116;DHT22;11727;52.134;5.052;2023-05-19T01:52:09;9.00;99.90
23116;DHT22;11727;52.134;5.052;2023-05-19T01:54:35;9.00;99.90
23116;DHT22;11727;52.134;5.052;2023-05-19T01:57:10;9.00;99.90
23116;DHT22;11727;52.134;5.052;2023-05-19T01:59:55;8.90;99.90
23116;DHT22;11727;52.134;5.052;2023-05-19T02:02:33;8.90;99.90
23116;DHT22;11727;52.134;5.052;2023-05-19T02:05:11;8.90;99.90
23116;DHT22;11727;52.134;5.052;2023-05-19T02:07:49;8.90;99.90
23116;DHT22;11727;52.134;5.052;2023-05-19T02:10:24;8.90;99.90
23116;DHT22;11727;52.134;5.052;2023-05-19T02:12:52;8.90;99.90
23116;DHT22;11727;52.134;5.052;2023-05-19T02:15:24;8.90;99.90
23116;DHT22;11727;52.134;5.052;2023-05-19T02:17:54;8.90;99.90
23116;DHT22;11727;52.134;5.052;2023-05-19T02:20:22;8.80;99.90
23116;DHT22;11727;52.134;5.052;2023-05-19T02:22:48;8.80;99.90
23116;DHT22;11727;52.134;5.052;2023-05-19T02:25:13;8.80;99.90
23116;DHT22;11727;52.134;5.052;2023-05-19T02:27:40;8.80;99.90
23116;DHT22;11727;52.134;5.052;2023-05-19T02:30:07;8.80;99.90
23116;DHT22;11727;52.134;5.052;2023-05-19T02:32:33;8.70;99.90
23116;DHT22;11727;52.134;5.052;2023-05-19T02:34:59;8.70;99.90
23116;DHT22;11727;52.134;5.052;2023-05-19T02:37:25;8.70;99.90
23116;DHT22;11727;52.134;5.052;2023-05-19T02:39:52;8.70;99.90
23116;DHT22;11727;52.134;5.052;2023-05-19T02:42:18;8.70;99.90
23116;DHT22;11727;52.134;5.052;2023-05-19T02:44:44;8.70;99.90
23116;DHT22;11727;52.134;5.052;2023-05-19T02:47:10;8.70;99.90
23116;DHT22;11727;52.134;5.052;2023-05-19T02:49:36;8.60;99.90
23116;DHT22;11727;52.134;5.052;2023-05-19T02:52:02;8.70;99.90
23116;DHT22;11727;52.134;5.052;2023-05-19T02:54:32;8.60;99.90
23116;DHT22;11727;52.134;5.052;2023-05-19T02:56:58;8.60;99.90
23116;DHT22;11727;52.134;5.052;2023-05-19T02:59:24;8.60;99.90
23116;DHT22;11727;52.134;5.052;2023-05-19T03:01:54;8.60;99.90
23116;DHT22;11727;52.134;5.052;2023-05-19T03:04:19;8.60;99.90
23116;DHT22;11727;52.134;5.052;2023-05-19T03:06:45;8.50;99.90
23116;DHT22;11727;52.134;5.052;2023-05-19T03:09:11;8.50;99.90
23116;DHT22;11727;52.134;5.052;2023-05-19T03:11:38;8.50;99.90
23116;DHT22;11727;52.134;5.052;2023-05-19T03:14:04;8.50;99.90
23116;DHT22;11727;52.134;5.052;2023-05-19T03:16:29;8.50;99.90
23116;DHT22;11727;52.134;5.052;2023-05-19T03:18:55;8.50;99.90
23116;DHT22;11727;52.134;5.052;2023-05-19T03:21:21;8.50;99.90
23116;DHT22;11727;52.134;5.052;2023-05-19T03:23:47;8.50;99.90
23116;DHT22;11727;52.134;5.052;2023-05-19T03:26:12;8.50;99.90
23116;DHT22;11727;52.134;5.052;2023-05-19T03:28:38;8.50;99.90
23116;DHT22;11727;52.134;5.052;2023-05-19T03:31:04;8.50;99.90
23116;DHT22;11727;52.134;5.052;2023-05-19T03:33:30;8.50;99.90
23116;DHT22;11727;52.134;5.052;2023-05-19T03:35:56;8.50;99.90
23116;DHT22;11727;52.134;5.052;2023-05-19T03:38:21;8.50;99.90
23116;DHT22;11727;52.134;5.052;2023-05-19T03:40:47;8.50;99.90
23116;DHT22;11727;52.134;5.052;2023-05-19T03:43:13;8.50;99.90
23116;DHT22;11727;52.134;5.052;2023-05-19T03:45:38;8.50;99.90
23116;DHT22;11727;52.134;5.052;2023-05-19T03:48:04;8.50;99.90
23116;DHT22;11727;52.134;5.052;2023-05-19T03:50:30;8.50;99.90
23116;DHT22;11727;52.134;5.052;2023-05-19T03:52:56;8.50;99.90
23116;DHT22;11727;52.134;5.052;2023-05-19T03:55:22;8.50;99.90
23116;DHT22;11727;52.134;5.052;2023-05-19T03:57:47;8.50;99.90
23116;DHT22;11727;52.134;5.052;2023-05-19T04:00:13;8.40;99.90
23116;DHT22;11727;52.134;5.052;2023-05-19T04:02:39;8.40;99.90
23116;DHT22;11727;52.134;5.052;2023-05-19T04:05:06;8.50;99.90
23116;DHT22;11727;52.134;5.052;2023-05-19T04:07:32;8.50;99.90
23116;DHT22;11727;52.134;5.052;2023-05-19T04:09:58;8.50;99.90
23116;DHT22;11727;52.134;5.052;2023-05-19T04:12:24;8.40;99.90
23116;DHT22;11727;52.134;5.052;2023-05-19T04:14:50;8.40;99.90
23116;DHT22;11727;52.134;5.052;2023-05-19T04:17:15;8.40;99.90
23116;DHT22;11727;52.134;5.052;2023-05-19T04:19:41;8.40;99.90
23116;DHT22;11727;52.134;5.052;2023-05-19T04:22:07;8.40;99.90
23116;DHT22;11727;52.134;5.052;2023-05-19T04:24:32;8.40;99.90
23116;DHT22;11727;52.134;5.052;2023-05-19T04:26:58;8.40;99.90
23116;DHT22;11727;52.134;5.052;2023-05-19T04:29:27;8.50;99.90
23116;DHT22;11727;52.134;5.052;2023-05-19T04:31:54;8.50;99.90
23116;DHT22;11727;52.134;5.052;2023-05-19T04:34:20;8.50;99.90
23116;DHT22;11727;52.134;5.052;2023-05-19T04:36:46;8.50;99.90
23116;DHT22;11727;52.134;5.052;2023-05-19T04:39:12;8.50;99.90
23116;DHT22;11727;52.134;5.052;2023-05-19T04:41:38;8.50;99.90
23116;DHT22;11727;52.134;5.052;2023-05-19T04:44:07;8.60;99.90
23116;DHT22;11727;52.134;5.052;2023-05-19T04:46:38;8.60;99.90
23116;DHT22;11727;52.134;5.052;2023-05-19T04:49:03;8.60;99.90
23116;DHT22;11727;52.134;5.052;2023-05-19T04:51:29;8.70;99.90
23116;DHT22;11727;52.134;5.052;2023-05-19T04:53:56;8.70;99.90
23116;DHT22;11727;52.134;5.052;2023-05-19T04:56:22;8.80;99.90
23116;DHT22;11727;52.134;5.052;2023-05-19T04:58:48;8.80;99.90
23116;DHT22;11727;52.134;5.052;2023-05-19T05:01:14;8.90;99.90
23116;DHT22;11727;52.134;5.052;2023-05-19T05:03:41;8.90;99.90
23116;DHT22;11727;52.134;5.052;2023-05-19T05:06:07;8.90;99.90
23116;DHT22;11727;52.134;5.052;2023-05-19T05:08:33;9.00;99.90
23116;DHT22;11727;52.134;5.052;2023-05-19T05:11:00;9.00;99.90
23116;DHT22;11727;52.134;5.052;2023-05-19T05:13:47;9.10;99.90
23116;DHT22;11727;52.134;5.052;2023-05-19T05:16:23;9.20;99.90
23116;DHT22;11727;52.134;5.052;2023-05-19T05:19:26;9.30;99.90
23116;DHT22;11727;52.134;5.052;2023-05-19T05:48:18;10.10;99.90
23116;DHT22;11727;52.134;5.052;2023-05-19T05:51:07;10.20;99.90
23116;DHT22;11727;52.134;5.052;2023-05-19T06:04:19;10.80;99.90
23116;DHT22;11727;52.134;5.052;2023-05-19T06:06:45;11.00;99.90
23116;DHT22;11727;52.134;5.052;2023-05-19T06:09:11;11.10;99.90
23116;DHT22;11727;52.134;5.052;2023-05-19T06:11:37;11.30;99.90
23116;DHT22;11727;52.134;5.052;2023-05-19T06:14:02;11.40;99.90
23116;DHT22;11727;52.134;5.052;2023-05-19T06:16:28;11.50;99.90
23116;DHT22;11727;52.134;5.052;2023-05-19T06:18:54;11.50;99.90
23116;DHT22;11727;52.134;5.052;2023-05-19T06:21:19;11.70;99.90
23116;DHT22;11727;52.134;5.052;2023-05-19T06:23:46;11.80;99.90
23116;DHT22;11727;52.134;5.052;2023-05-19T06:26:11;11.90;99.90
23116;DHT22;11727;52.134;5.052;2023-05-19T06:28:37;12.00;99.90
23116;DHT22;11727;52.134;5.052;2023-05-19T06:31:02;12.10;99.90
23116;DHT22;11727;52.134;5.052;2023-05-19T06:33:28;12.20;99.90
23116;DHT22;11727;52.134;5.052;2023-05-19T06:35:57;12.40;99.90
23116;DHT22;11727;52.134;5.052;2023-05-19T06:38:22;12.60;99.90
23116;DHT22;11727;52.134;5.052;2023-05-19T06:40:48;12.80;99.90
23116;DHT22;11727;52.134;5.052;2023-05-19T06:43:15;13.00;99.90
23116;DHT22;11727;52.134;5.052;2023-05-19T06:45:47;13.20;99.90
23116;DHT22;11727;52.134;5.052;2023-05-19T06:48:14;13.40;99.90
23116;DHT22;11727;52.134;5.052;2023-05-19T06:50:39;13.50;99.90
23116;DHT22;11727;52.134;5.052;2023-05-19T06:53:05;13.50;99.90
23116;DHT22;11727;52.134;5.052;2023-05-19T06:55:30;13.50;99.90
23116;DHT22;11727;52.134;5.052;2023-05-19T06:57:56;13.60;99.90
23116;DHT22;11727;52.134;5.052;2023-05-19T07:00:22;13.80;99.90
23116;DHT22;11727;52.134;5.052;2023-05-19T07:02:47;13.90;99.90
23116;DHT22;11727;52.134;5.052;2023-05-19T07:05:13;14.00;99.90
23116;DHT22;11727;52.134;5.052;2023-05-19T07:07:39;14.10;99.90
23116;DHT22;11727;52.134;5.052;2023-05-19T07:10:05;14.20;99.90
23116;DHT22;11727;52.134;5.052;2023-05-19T07:12:30;14.40;99.90
23116;DHT22;11727;52.134;5.052;2023-05-19T07:14:56;14.40;99.90
23116;DHT22;11727;52.134;5.052;2023-05-19T07:17:22;14.50;99.90
23116;DHT22;11727;52.134;5.052;2023-05-19T07:19:47;14.70;99.90
23116;DHT22;11727;52.134;5.052;2023-05-19T07:22:13;14.90;99.90
23116;DHT22;11727;52.134;5.052;2023-05-19T07:24:39;15.10;99.90
23116;DHT22;11727;52.134;5.052;2023-05-19T07:27:05;15.30;99.90
23116;DHT22;11727;52.134;5.052;2023-05-19T07:29:32;15.30;99.90
23116;DHT22;11727;52.134;5.052;2023-05-19T07:31:58;15.50;99.90
23116;DHT22;11727;52.134;5.052;2023-05-19T07:34:24;15.50;99.90
23116;DHT22;11727;52.134;5.052;2023-05-19T07:36:55;15.60;99.90
23116;DHT22;11727;52.134;5.052;2023-05-19T07:39:21;15.60;99.90
23116;DHT22;11727;52.134;5.052;2023-05-19T07:41:49;15.80;99.90
23116;DHT22;11727;52.134;5.052;2023-05-19T07:44:19;16.00;99.90
23116;DHT22;11727;52.134;5.052;2023-05-19T07:46:46;16.20;99.90
23116;DHT22;11727;52.134;5.052;2023-05-19T07:49:12;16.30;99.90
23116;DHT22;11727;52.134;5.052;2023-05-19T07:51:38;16.40;99.90
23116;DHT22;11727;52.134;5.052;2023-05-19T07:54:03;16.50;99.90
23116;DHT22;11727;52.134;5.052;2023-05-19T07:56:29;16.60;99.90
23116;DHT22;11727;52.134;5.052;2023-05-19T07:58:55;16.60;99.90
23116;DHT22;11727;52.134;5.052;2023-05-19T08:01:21;16.80;99.90
23116;DHT22;11727;52.134;5.052;2023-05-19T08:03:46;17.00;99.90
23116;DHT22;11727;52.134;5.052;2023-05-19T08:06:12;17.10;99.90
23116;DHT22;11727;52.134;5.052;2023-05-19T08:08:37;17.10;99.90
23116;DHT22;11727;52.134;5.052;2023-05-19T08:11:03;17.10;99.90
23116;DHT22;11727;52.134;5.052;2023-05-19T08:13:29;17.00;99.90
23116;DHT22;11727;52.134;5.052;2023-05-19T08:15:55;16.90;99.90
23116;DHT22;11727;52.134;5.052;2023-05-19T08:18:24;16.90;99.90
23116;DHT22;11727;52.134;5.052;2023-05-19T08:20:50;16.90;99.90
23116;DHT22;11727;52.134;5.052;2023-05-19T08:23:16;17.10;99.90
23116;DHT22;11727;52.134;5.052;2023-05-19T08:25:42;17.30;99.90
23116;DHT22;11727;52.134;5.052;2023-05-19T08:28:08;17.50;99.90
23116;DHT22;11727;52.134;5.052;2023-05-19T08:30:33;17.80;99.90
23116;DHT22;11727;52.134;5.052;2023-05-19T08:32:59;17.90;99.90
23116;DHT22;11727;52.134;5.052;2023-05-19T08:35:24;18.10;99.90
23116;DHT22;11727;52.134;5.052;2023-05-19T08:37:50;18.30;99.90
23116;DHT22;11727;52.134;5.052;2023-05-19T08:40:17;18.40;99.90
23116;DHT22;11727;52.134;5.052;2023-05-19T08:42:47;18.60;99.90
23116;DHT22;11727;52.134;5.052;2023-05-19T08:45:13;18.80;99.90
23116;DHT22;11727;52.134;5.052;2023-05-19T08:47:44;19.00;99.90
23116;DHT22;11727;52.134;5.052;2023-05-19T08:50:10;19.20;99.90
23116;DHT22;11727;52.134;5.052;2023-05-19T08:53:07;19.20;99.90
23116;DHT22;11727;52.134;5.052;2023-05-19T08:56:01;19.20;99.90
23116;DHT22;11727;52.134;5.052;2023-05-19T08:58:36;19.20;99.90
23116;DHT22;11727;52.134;5.052;2023-05-19T09:01:03;19.40;99.90
23116;DHT22;11727;52.134;5.052;2023-05-19T09:03:32;19.50;99.90
23116;DHT22;11727;52.134;5.052;2023-05-19T09:06:06;19.70;99.90
23116;DHT22;11727;52.134;5.052;2023-05-19T09:08:33;19.70;99.90
23116;DHT22;11727;52.134;5.052;2023-05-19T09:10:59;19.60;99.90
23116;DHT22;11727;52.134;5.052;2023-05-19T09:13:25;19.60;99.90
23116;DHT22;11727;52.134;5.052;2023-05-19T09:15:52;19.60;99.90
23116;DHT22;11727;52.134;5.052;2023-05-19T09:18:18;19.70;99.90
23116;DHT22;11727;52.134;5.052;2023-05-19T09:20:44;19.60;99.90
23116;DHT22;11727;52.134;5.052;2023-05-19T09:23:14;19.80;99.90
23116;DHT22;11727;52.134;5.052;2023-05-19T09:25:50;19.90;99.90
23116;DHT22;11727;52.134;5.052;2023-05-19T09:28:27;20.00;99.90
23116;DHT22;11727;52.134;5.052;2023-05-19T09:33:26;20.10;99.90
23116;DHT22;11727;52.134;5.052;2023-05-19T09:35:54;20.10;99.90
23116;DHT22;11727;52.134;5.052;2023-05-19T09:38:22;20.20;99.90
23116;DHT22;11727;52.134;5.052;2023-05-19T09:40:48;20.30;99.90
23116;DHT22;11727;52.134;5.052;2023-05-19T09:43:16;20.30;99.90
23116;DHT22;11727;52.134;5.052;2023-05-19T09:45:42;20.50;99.90
23116;DHT22;11727;52.134;5.052;2023-05-19T09:48:08;20.60;99.90
23116;DHT22;11727;52.134;5.052;2023-05-19T09:50:34;20.90;99.90
23116;DHT22;11727;52.134;5.052;2023-05-19T09:53:00;20.80;99.90
23116;DHT22;11727;52.134;5.052;2023-05-19T09:55:28;20.60;99.90
23116;DHT22;11727;52.134;5.052;2023-05-19T09:57:54;20.50;99.90
23116;DHT22;11727;52.134;5.052;2023-05-19T10:00:22;20.60;99.90
23116;DHT22;11727;52.134;5.052;2023-05-19T10:02:48;20.60;99.90
23116;DHT22;11727;52.134;5.052;2023-05-19T10:05:16;20.60;99.90
23116;DHT22;11727;52.134;5.052;2023-05-19T10:07:44;20.60;99.90
23116;DHT22;11727;52.134;5.052;2023-05-19T10:10:15;20.60;99.90
23116;DHT22;11727;52.134;5.052;2023-05-19T10:12:41;20.50;99.90
23116;DHT22;11727;52.134;5.052;2023-05-19T10:15:14;20.70;99.90
23116;DHT22;11727;52.134;5.052;2023-05-19T10:17:41;20.70;99.90
23116;DHT22;11727;52.134;5.052;2023-05-19T10:20:08;20.60;99.90
23116;DHT22;11727;52.134;5.052;2023-05-19T10:22:35;20.50;99.90
23116;DHT22;11727;52.134;5.052;2023-05-19T10:25:02;20.50;99.90
23116;DHT22;11727;52.134;5.052;2023-05-19T10:27:28;20.50;99.90
23116;DHT22;11727;52.134;5.052;2023-05-19T10:29:57;20.50;99.90
23116;DHT22;11727;52.134;5.052;2023-05-19T10:32:26;20.60;99.90
23116;DHT22;11727;52.134;5.052;2023-05-19T10:37:48;20.30;99.90
23116;DHT22;11727;52.134;5.052;2023-05-19T10:45:56;20.50;99.90
23116;DHT22;11727;52.134;5.052;2023-05-19T10:48:22;20.20;99.90
23116;DHT22;11727;52.134;5.052;2023-05-19T10:50:48;20.20;99.90
23116;DHT22;11727;52.134;5.052;2023-05-19T10:53:28;20.20;99.90
23116;DHT22;11727;52.134;5.052;2023-05-19T10:56:00;20.30;99.90
23116;DHT22;11727;52.134;5.052;2023-05-19T11:01:15;20.70;99.90
23116;DHT22;11727;52.134;5.052;2023-05-19T11:08:58;20.90;99.90
23116;DHT22;11727;52.134;5.052;2023-05-19T11:11:49;20.80;99.90
23116;DHT22;11727;52.134;5.052;2023-05-19T11:14:25;20.80;99.90
23116;DHT22;11727;52.134;5.052;2023-05-19T11:16:55;20.90;99.90
23116;DHT22;11727;52.134;5.052;2023-05-19T11:19:31;20.90;99.90
23116;DHT22;11727;52.134;5.052;2023-05-19T11:22:11;20.90;99.90
23116;DHT22;11727;52.134;5.052;2023-05-19T11:24:44;20.80;99.90
23116;DHT22;11727;52.134;5.052;2023-05-19T11:27:27;20.70;99.90
23116;DHT22;11727;52.134;5.052;2023-05-19T11:30:13;20.70;99.90
23116;DHT22;11727;52.134;5.052;2023-05-19T11:32:58;20.70;99.90
23116;DHT22;11727;52.134;5.052;2023-05-19T11:35:25;20.70;99.90
23116;DHT22;11727;52.134;5.052;2023-05-19T11:37:53;20.60;99.90
23116;DHT22;11727;52.134;5.052;2023-05-19T11:40:20;20.50;99.90
23116;DHT22;11727;52.134;5.052;2023-05-19T11:42:46;20.50;99.90
23116;DHT22;11727;52.134;5.052;2023-05-19T11:45:14;20.40;99.90
23116;DHT22;11727;52.134;5.052;2023-05-19T11:47:39;20.20;99.90
23116;DHT22;11727;52.134;5.052;2023-05-19T11:50:05;20.20;99.90
23116;DHT22;11727;52.134;5.052;2023-05-19T11:52:34;19.90;99.90
23116;DHT22;11727;52.134;5.052;2023-05-19T11:55:00;19.90;99.90
23116;DHT22;11727;52.134;5.052;2023-05-19T12:00:56;20.30;99.90
23116;DHT22;11727;52.134;5.052;2023-05-19T12:03:22;20.50;99.90
23116;DHT22;11727;52.134;5.052;2023-05-19T12:05:52;20.50;99.90
23116;DHT22;11727;52.134;5.052;2023-05-19T12:08:18;20.50;99.90
23116;DHT22;11727;52.134;5.052;2023-05-19T12:10:47;20.50;99.90
23116;DHT22;11727;52.134;5.052;2023-05-19T12:13:14;20.60;99.90
23116;DHT22;11727;52.134;5.052;2023-05-19T12:15:40;20.50;99.90
23116;DHT22;11727;52.134;5.052;2023-05-19T12:18:06;20.50;99.90
23116;DHT22;11727;52.134;5.052;2023-05-19T12:20:32;20.50;99.90
23116;DHT22;11727;52.134;5.052;2023-05-19T12:23:00;20.30;99.90
23116;DHT22;11727;52.134;5.052;2023-05-19T12:25:26;20.10;99.90
23116;DHT22;11727;52.134;5.052;2023-05-19T12:27:57;20.30;99.90
23116;DHT22;11727;52.134;5.052;2023-05-19T12:30:27;20.40;99.90
23116;DHT22;11727;52.134;5.052;2023-05-19T12:32:54;20.30;99.90
23116;DHT22;11727;52.134;5.052;2023-05-19T12:35:28;20.20;99.90
23116;DHT22;11727;52.134;5.052;2023-05-19T12:37:54;20.40;99.90
23116;DHT22;11727;52.134;5.052;2023-05-19T12:40:20;20.10;99.90
23116;DHT22;11727;52.134;5.052;2023-05-19T12:42:46;19.90;99.90
23116;DHT22;11727;52.134;5.052;2023-05-19T12:45:13;19.70;99.90
23116;DHT22;11727;52.134;5.052;2023-05-19T12:47:39;19.80;99.90
23116;DHT22;11727;52.134;5.052;2023-05-19T12:50:06;19.90;99.90
23116;DHT22;11727;52.134;5.052;2023-05-19T12:52:43;19.90;99.90
23116;DHT22;11727;52.134;5.052;2023-05-19T12:55:09;20.10;99.90
23116;DHT22;11727;52.134;5.052;2023-05-19T12:57:37;20.10;99.90
23116;DHT22;11727;52.134;5.052;2023-05-19T13:00:12;19.80;99.90
23116;DHT22;11727;52.134;5.052;2023-05-19T13:03:03;19.50;99.90
23116;DHT22;11727;52.134;5.052;2023-05-19T13:05:40;19.50;99.90
23116;DHT22;11727;52.134;5.052;2023-05-19T13:08:10;19.40;99.90
23116;DHT22;11727;52.134;5.052;2023-05-19T13:10:37;19.30;99.90
23116;DHT22;11727;52.134;5.052;2023-05-19T13:13:04;19.40;99.90
23116;DHT22;11727;52.134;5.052;2023-05-19T13:15:31;19.50;99.90
23116;DHT22;11727;52.134;5.052;2023-05-19T13:18:02;19.70;99.90
23116;DHT22;11727;52.134;5.052;2023-05-19T13:20:28;19.80;99.90
23116;DHT22;11727;52.134;5.052;2023-05-19T13:22:54;19.70;99.90
23116;DHT22;11727;52.134;5.052;2023-05-19T13:25:20;19.90;99.90
23116;DHT22;11727;52.134;5.052;2023-05-19T13:27:46;19.80;99.90
23116;DHT22;11727;52.134;5.052;2023-05-19T13:30:13;19.60;99.90
23116;DHT22;11727;52.134;5.052;2023-05-19T13:32:40;19.70;99.90
23116;DHT22;11727;52.134;5.052;2023-05-19T13:35:07;19.90;99.90
23116;DHT22;11727;52.134;5.052;2023-05-19T13:37:33;19.90;99.90
23116;DHT22;11727;52.134;5.052;2023-05-19T13:39:59;20.00;99.90
23116;DHT22;11727;52.134;5.052;2023-05-19T13:42:24;20.10;99.90
23116;DHT22;11727;52.134;5.052;2023-05-19T13:44:54;20.20;99.90
23116;DHT22;11727;52.134;5.052;2023-05-19T13:47:24;20.30;99.90
23116;DHT22;11727;52.134;5.052;2023-05-19T13:49:50;20.20;99.90
23116;DHT22;11727;52.134;5.052;2023-05-19T13:52:16;20.10;99.90
23116;DHT22;11727;52.134;5.052;2023-05-19T13:54:42;20.00;99.90
23116;DHT22;11727;52.134;5.052;2023-05-19T13:57:08;19.90;99.90
23116;DHT22;11727;52.134;5.052;2023-05-19T13:59:34;20.00;99.90
23116;DHT22;11727;52.134;5.052;2023-05-19T14:02:00;20.00;99.90
23116;DHT22;11727;52.134;5.052;2023-05-19T14:04:30;19.90;99.90
23116;DHT22;11727;52.134;5.052;2023-05-19T14:06:57;19.90;99.90
23116;DHT22;11727;52.134;5.052;2023-05-19T14:09:22;19.80;99.90
23116;DHT22;11727;52.134;5.052;2023-05-19T14:11:51;19.80;99.90
23116;DHT22;11727;52.134;5.052;2023-05-19T14:14:17;19.80;99.90
23116;DHT22;11727;52.134;5.052;2023-05-19T14:16:42;19.60;99.90
23116;DHT22;11727;52.134;5.052;2023-05-19T14:19:09;19.80;99.90
23116;DHT22;11727;52.134;5.052;2023-05-19T14:21:34;19.90;99.90
23116;DHT22;11727;52.134;5.052;2023-05-19T14:24:01;20.10;99.90
23116;DHT22;11727;52.134;5.052;2023-05-19T14:26:26;20.20;99.90
23116;DHT22;11727;52.134;5.052;2023-05-19T14:28:52;20.40;99.90
23116;DHT22;11727;52.134;5.052;2023-05-19T14:31:18;20.30;99.90
23116;DHT22;11727;52.134;5.052;2023-05-19T14:33:43;20.20;99.90
23116;DHT22;11727;52.134;5.052;2023-05-19T14:36:09;20.20;99.90
23116;DHT22;11727;52.134;5.052;2023-05-19T14:38:35;20.10;99.90
23116;DHT22;11727;52.134;5.052;2023-05-19T14:41:01;20.20;99.90
23116;DHT22;11727;52.134;5.052;2023-05-19T14:43:27;20.30;99.90
23116;DHT22;11727;52.134;5.052;2023-05-19T14:45:53;20.30;99.90
23116;DHT22;11727;52.134;5.052;2023-05-19T14:48:18;20.40;99.90
23116;DHT22;11727;52.134;5.052;2023-05-19T14:50:45;20.20;99.90
23116;DHT22;11727;52.134;5.052;2023-05-19T14:53:12;20.20;99.90
23116;DHT22;11727;52.134;5.052;2023-05-19T14:55:38;20.10;99.90
23116;DHT22;11727;52.134;5.052;2023-05-19T14:58:04;20.00;99.90
23116;DHT22;11727;52.134;5.052;2023-05-19T15:00:29;20.00;99.90
23116;DHT22;11727;52.134;5.052;2023-05-19T15:02:55;19.80;99.90
23116;DHT22;11727;52.134;5.052;2023-05-19T15:05:20;19.80;99.90
23116;DHT22;11727;52.134;5.052;2023-05-19T15:07:48;19.90;99.90
23116;DHT22;11727;52.134;5.052;2023-05-19T15:10:16;20.00;99.90
23116;DHT22;11727;52.134;5.052;2023-05-19T15:12:44;19.90;99.90
23116;DHT22;11727;52.134;5.052;2023-05-19T15:15:10;20.00;99.90
23116;DHT22;11727;52.134;5.052;2023-05-19T15:17:35;20.10;99.90
23116;DHT22;11727;52.134;5.052;2023-05-19T15:20:01;20.00;99.90
23116;DHT22;11727;52.134;5.052;2023-05-19T15:22:27;20.00;99.90
23116;DHT22;11727;52.134;5.052;2023-05-19T15:24:52;19.80;99.90
23116;DHT22;11727;52.134;5.052;2023-05-19T15:27:18;19.80;99.90
23116;DHT22;11727;52.134;5.052;2023-05-19T15:29:45;19.70;99.90
23116;DHT22;11727;52.134;5.052;2023-05-19T15:32:10;19.80;99.90
23116;DHT22;11727;52.134;5.052;2023-05-19T15:34:36;19.90;99.90
23116;DHT22;11727;52.134;5.052;2023-05-19T15:37:02;19.80;99.90
23116;DHT22;11727;52.134;5.052;2023-05-19T15:39:29;19.70;99.90
23116;DHT22;11727;52.134;5.052;2023-05-19T15:41:55;19.70;99.90
23116;DHT22;11727;52.134;5.052;2023-05-19T15:44:21;19.60;99.90
23116;DHT22;11727;52.134;5.052;2023-05-19T15:46:46;19.60;99.90
23116;DHT22;11727;52.134;5.052;2023-05-19T15:49:12;19.60;99.90
23116;DHT22;11727;52.134;5.052;2023-05-19T15:51:37;19.70;99.90
23116;DHT22;11727;52.134;5.052;2023-05-19T15:54:03;19.70;99.90
23116;DHT22;11727;52.134;5.052;2023-05-19T15:56:29;19.80;99.90
23116;DHT22;11727;52.134;5.052;2023-05-19T15:58:54;19.90;99.90
23116;DHT22;11727;52.134;5.052;2023-05-19T16:01:20;19.90;99.90
23116;DHT22;11727;52.134;5.052;2023-05-19T16:03:46;19.90;99.90
23116;DHT22;11727;52.134;5.052;2023-05-19T16:06:12;19.80;99.90
23116;DHT22;11727;52.134;5.052;2023-05-19T16:08:37;19.90;99.90
23116;DHT22;11727;52.134;5.052;2023-05-19T16:11:03;19.90;99.90
23116;DHT22;11727;52.134;5.052;2023-05-19T16:13:29;19.80;99.90
23116;DHT22;11727;52.134;5.052;2023-05-19T16:15:56;19.80;99.90
23116;DHT22;11727;52.134;5.052;2023-05-19T16:18:22;19.80;99.90
23116;DHT22;11727;52.134;5.052;2023-05-19T16:20:49;19.70;99.90
23116;DHT22;11727;52.134;5.052;2023-05-19T16:23:15;19.70;99.90
23116;DHT22;11727;52.134;5.052;2023-05-19T16:25:41;19.70;99.90
23116;DHT22;11727;52.134;5.052;2023-05-19T16:28:06;19.90;99.90
23116;DHT22;11727;52.134;5.052;2023-05-19T16:30:32;19.80;99.90
23116;DHT22;11727;52.134;5.052;2023-05-19T16:32:57;19.80;99.90
23116;DHT22;11727;52.134;5.052;2023-05-19T16:35:23;19.80;99.90
23116;DHT22;11727;52.134;5.052;2023-05-19T16:37:49;19.70;99.90
23116;DHT22;11727;52.134;5.052;2023-05-19T16:40:14;19.80;99.90
23116;DHT22;11727;52.134;5.052;2023-05-19T16:42:40;19.80;99.90
23116;DHT22;11727;52.134;5.052;2023-05-19T16:45:06;19.70;99.90
23116;DHT22;11727;52.134;5.052;2023-05-19T16:47:32;19.60;99.90
23116;DHT22;11727;52.134;5.052;2023-05-19T16:49:57;19.60;99.90